Check out our new PWSWeather beta!
PWSweather.com
Personal Weather Stations
Station Observations
ITROMSHA6
HarstadNO 9407

HarstadNO 9407

Lat: 68.7814767, Lon: 16.5297091

Elevation: 145

Station Type: Davis Vantage Pro2

High Low Average
Temperature 42.6°F5.9°C 35.1°F1.7°C 39.0°F3.9°C
Dew Point 36.5°F2.5°C 30.0°F-1.1°C 33.0°F0.6°C
Winds 11.0 mph 17.7 kmh Calm Calm 3.0 mph SSW4.8 kmh SSW
Wind Gusts 14.0 mph22.5 kmh -- 1.0 mph1.6 kmh
Humidity 91% 70% 79%
Pressure 30.11 in1019.6 mb 29.96 in1014.6 mb -
Precipitation 0.38 in9.7 mm - -
Hour Temp Dew Point Humidity Winds Wind Gusts Pressure Precip Precip Rate Daily Precip Total
12:00 AM 36.5°F2.5°C 30.6°F-0.8°C 79% 3.0 mph SW4.8 kmh SW -- 30.11 in1019.6 mb 0.00 in0.0 mm 0.00 in0.0 mm 0.00 in0.0 mm
12:05 AM 36.4°F2.4°C 30.2°F-1.0°C 78% 3.0 mph SW4.8 kmh SW -- 30.11 in1019.6 mb 0.00 in0.0 mm 0.00 in0.0 mm 0.00 in0.0 mm
12:10 AM 36.3°F2.4°C 30.2°F-1.0°C 78% 1.0 mph WSW1.6 kmh WSW -- 30.11 in1019.6 mb 0.00 in0.0 mm 0.00 in0.0 mm 0.00 in0.0 mm
12:15 AM 36.2°F2.3°C 30.0°F-1.1°C 78% 6.0 mph SW9.7 kmh SW 8.0 mph12.9 kmh 30.11 in1019.6 mb 0.00 in0.0 mm 0.00 in0.0 mm 0.00 in0.0 mm
12:20 AM 36.3°F2.4°C 30.2°F-1.0°C 78% 2.0 mph S3.2 kmh S -- 30.11 in1019.6 mb 0.00 in0.0 mm 0.00 in0.0 mm 0.00 in0.0 mm
12:25 AM 36.4°F2.4°C 30.2°F-1.0°C 78% 5.0 mph S8.0 kmh S -- 30.11 in1019.6 mb 0.00 in0.0 mm 0.00 in0.0 mm 0.00 in0.0 mm
12:30 AM 36.4°F2.4°C 30.2°F-1.0°C 78% 2.0 mph SSW3.2 kmh SSW -- 30.11 in1019.6 mb 0.00 in0.0 mm 0.00 in0.0 mm 0.00 in0.0 mm
12:35 AM 36.5°F2.5°C 30.4°F-0.9°C 78% 3.0 mph SSW4.8 kmh SSW -- 30.11 in1019.6 mb 0.00 in0.0 mm 0.00 in0.0 mm 0.00 in0.0 mm
12:40 AM 36.4°F2.4°C 30.2°F-1.0°C 78% 2.0 mph SW3.2 kmh SW 8.0 mph12.9 kmh 30.11 in1019.6 mb 0.00 in0.0 mm 0.00 in0.0 mm 0.00 in0.0 mm
12:45 AM 36.4°F2.4°C 30.4°F-0.9°C 79% Calm Calm -- 30.11 in1019.6 mb 0.00 in0.0 mm 0.00 in0.0 mm 0.00 in0.0 mm
12:50 AM 36.4°F2.4°C 30.4°F-0.9°C 79% 3.0 mph SW4.8 kmh SW -- 30.11 in1019.6 mb 0.00 in0.0 mm 0.00 in0.0 mm 0.00 in0.0 mm
12:55 AM 36.4°F2.4°C 30.2°F-1.0°C 78% 2.0 mph W3.2 kmh W -- 30.11 in1019.6 mb 0.00 in0.0 mm 0.00 in0.0 mm 0.00 in0.0 mm
01:00 AM 36.3°F2.4°C 30.4°F-0.9°C 79% 4.0 mph WNW6.4 kmh WNW -- 30.11 in1019.6 mb 0.00 in0.0 mm 0.00 in0.0 mm 0.00 in0.0 mm
01:05 AM 36.3°F2.4°C 30.4°F-0.9°C 79% Calm Calm 4.0 mph6.4 kmh 30.11 in1019.6 mb 0.00 in0.0 mm 0.00 in0.0 mm 0.00 in0.0 mm
01:10 AM 36.2°F2.3°C 30.2°F-1.0°C 79% 1.0 mph W1.6 kmh W -- 30.10 in1019.3 mb 0.00 in0.0 mm 0.00 in0.0 mm 0.00 in0.0 mm
01:15 AM 36.3°F2.4°C 30.4°F-0.9°C 79% Calm Calm -- 30.10 in1019.3 mb 0.00 in0.0 mm 0.00 in0.0 mm 0.00 in0.0 mm
01:20 AM 36.2°F2.3°C 30.2°F-1.0°C 79% 1.0 mph W1.6 kmh W -- 30.10 in1019.3 mb 0.00 in0.0 mm 0.00 in0.0 mm 0.00 in0.0 mm
01:25 AM 36.2°F2.3°C 30.2°F-1.0°C 79% Calm Calm -- 30.10 in1019.3 mb 0.00 in0.0 mm 0.00 in0.0 mm 0.00 in0.0 mm
01:30 AM 36.2°F2.3°C 30.2°F-1.0°C 79% 1.0 mph SSE1.6 kmh SSE 5.0 mph8.0 kmh 30.10 in1019.3 mb 0.00 in0.0 mm 0.00 in0.0 mm 0.00 in0.0 mm
01:35 AM 36.3°F2.4°C 30.4°F-0.9°C 79% Calm Calm -- 30.10 in1019.3 mb 0.00 in0.0 mm 0.00 in0.0 mm 0.00 in0.0 mm
01:40 AM 36.3°F2.4°C 30.4°F-0.9°C 79% 4.0 mph SW6.4 kmh SW -- 30.10 in1019.3 mb 0.00 in0.0 mm 0.00 in0.0 mm 0.00 in0.0 mm
01:45 AM 36.3°F2.4°C 30.7°F-0.7°C 80% 4.0 mph SSW6.4 kmh SSW -- 30.10 in1019.3 mb 0.00 in0.0 mm 0.00 in0.0 mm 0.00 in0.0 mm
01:50 AM 36.3°F2.4°C 31.1°F-0.5°C 81% 5.0 mph SSW8.0 kmh SSW -- 30.10 in1019.3 mb 0.00 in0.0 mm 0.00 in0.0 mm 0.00 in0.0 mm
01:55 AM 36.2°F2.3°C 30.9°F-0.6°C 81% 5.0 mph SW8.0 kmh SW 7.0 mph11.3 kmh 30.10 in1019.3 mb 0.00 in0.0 mm 0.00 in0.0 mm 0.00 in0.0 mm
02:00 AM 36.1°F2.3°C 31.1°F-0.5°C 82% 5.0 mph SW8.0 kmh SW -- 30.10 in1019.3 mb 0.00 in0.0 mm 0.00 in0.0 mm 0.00 in0.0 mm
02:05 AM 36.1°F2.3°C 31.1°F-0.5°C 82% 5.0 mph S8.0 kmh S -- 30.10 in1019.3 mb 0.00 in0.0 mm 0.00 in0.0 mm 0.00 in0.0 mm
02:10 AM 36.1°F2.3°C 31.5°F-0.3°C 83% Calm Calm -- 30.10 in1019.3 mb 0.00 in0.0 mm 0.00 in0.0 mm 0.00 in0.0 mm
02:15 AM 36.3°F2.4°C 32.0°F0.0°C 84% 1.0 mph S1.6 kmh S -- 30.10 in1019.3 mb 0.00 in0.0 mm 0.00 in0.0 mm 0.00 in0.0 mm
02:20 AM 36.5°F2.5°C 32.2°F0.1°C 84% 1.0 mph S1.6 kmh S 7.0 mph11.3 kmh 30.10 in1019.3 mb 0.00 in0.0 mm 0.00 in0.0 mm 0.00 in0.0 mm
02:25 AM 36.5°F2.5°C 32.2°F0.1°C 84% Calm Calm -- 30.10 in1019.3 mb 0.00 in0.0 mm 0.00 in0.0 mm 0.00 in0.0 mm
02:30 AM 36.3°F2.4°C 32.0°F0.0°C 84% Calm Calm -- 30.10 in1019.3 mb 0.00 in0.0 mm 0.00 in0.0 mm 0.00 in0.0 mm
02:35 AM 36.3°F2.4°C 32.0°F0.0°C 84% Calm Calm -- 30.10 in1019.3 mb 0.00 in0.0 mm 0.00 in0.0 mm 0.00 in0.0 mm
02:40 AM 36.3°F2.4°C 32.0°F0.0°C 84% 1.0 mph SW1.6 kmh SW -- 30.10 in1019.3 mb 0.00 in0.0 mm 0.00 in0.0 mm 0.00 in0.0 mm
02:45 AM 36.3°F2.4°C 32.2°F0.1°C 85% 6.0 mph SW9.7 kmh SW 8.0 mph12.9 kmh 30.10 in1019.3 mb 0.00 in0.0 mm 0.00 in0.0 mm 0.00 in0.0 mm
02:50 AM 36.3°F2.4°C 32.0°F0.0°C 84% 2.0 mph SW3.2 kmh SW -- 30.10 in1019.3 mb 0.00 in0.0 mm 0.00 in0.0 mm 0.00 in0.0 mm
02:55 AM 36.3°F2.4°C 32.0°F0.0°C 84% 1.0 mph SW1.6 kmh SW -- 30.09 in1019.0 mb 0.00 in0.0 mm 0.00 in0.0 mm 0.00 in0.0 mm
03:00 AM 36.3°F2.4°C 32.0°F0.0°C 84% 5.0 mph SW8.0 kmh SW -- 30.09 in1019.0 mb 0.00 in0.0 mm 0.00 in0.0 mm 0.00 in0.0 mm
03:05 AM 36.4°F2.4°C 32.0°F0.0°C 84% 4.0 mph SW6.4 kmh SW -- 30.09 in1019.0 mb 0.00 in0.0 mm 0.00 in0.0 mm 0.00 in0.0 mm
03:10 AM 36.4°F2.4°C 32.0°F0.0°C 84% 3.0 mph SW4.8 kmh SW 6.0 mph9.7 kmh 30.09 in1019.0 mb 0.00 in0.0 mm 0.00 in0.0 mm 0.00 in0.0 mm
03:15 AM 36.5°F2.5°C 32.2°F0.1°C 84% 2.0 mph SW3.2 kmh SW -- 30.09 in1019.0 mb 0.00 in0.0 mm 0.00 in0.0 mm 0.00 in0.0 mm
03:20 AM 36.5°F2.5°C 32.2°F0.1°C 84% 2.0 mph SW3.2 kmh SW -- 30.09 in1019.0 mb 0.00 in0.0 mm 0.00 in0.0 mm 0.00 in0.0 mm
03:25 AM 36.5°F2.5°C 32.2°F0.1°C 84% Calm Calm -- 30.09 in1019.0 mb 0.00 in0.0 mm 0.00 in0.0 mm 0.00 in0.0 mm
03:30 AM 36.6°F2.6°C 32.4°F0.2°C 84% 2.0 mph S3.2 kmh S -- 30.09 in1019.0 mb 0.00 in0.0 mm 0.00 in0.0 mm 0.00 in0.0 mm
03:35 AM 36.8°F2.7°C 32.5°F0.3°C 84% 4.0 mph SW6.4 kmh SW 7.0 mph11.3 kmh 30.08 in1018.6 mb 0.00 in0.0 mm 0.00 in0.0 mm 0.00 in0.0 mm
03:40 AM 36.9°F2.7°C 32.2°F0.1°C 83% 6.0 mph SW9.7 kmh SW -- 30.08 in1018.6 mb 0.00 in0.0 mm 0.00 in0.0 mm 0.00 in0.0 mm
03:45 AM 37.1°F2.8°C 32.4°F0.2°C 83% 3.0 mph S4.8 kmh S -- 30.09 in1019.0 mb 0.00 in0.0 mm 0.00 in0.0 mm 0.00 in0.0 mm
03:50 AM 37.1°F2.8°C 32.0°F0.0°C 82% 2.0 mph SSW3.2 kmh SSW -- 30.08 in1018.6 mb 0.00 in0.0 mm 0.00 in0.0 mm 0.00 in0.0 mm
03:55 AM 37.1°F2.8°C 32.0°F0.0°C 82% 6.0 mph SW9.7 kmh SW -- 30.08 in1018.6 mb 0.00 in0.0 mm 0.00 in0.0 mm 0.00 in0.0 mm
04:00 AM 37.3°F2.9°C 32.5°F0.3°C 83% 4.0 mph SSW6.4 kmh SSW 9.0 mph14.5 kmh 30.08 in1018.6 mb 0.00 in0.0 mm 0.00 in0.0 mm 0.00 in0.0 mm
04:05 AM 37.4°F3.0°C 32.7°F0.4°C 83% 5.0 mph WSW8.0 kmh WSW -- 30.08 in1018.6 mb 0.00 in0.0 mm 0.00 in0.0 mm 0.00 in0.0 mm
04:10 AM 37.5°F3.1°C 32.9°F0.5°C 83% 5.0 mph WSW8.0 kmh WSW -- 30.08 in1018.6 mb 0.00 in0.0 mm 0.00 in0.0 mm 0.00 in0.0 mm
04:15 AM 37.5°F3.1°C 32.9°F0.5°C 83% 7.0 mph WSW11.3 kmh WSW -- 30.08 in1018.6 mb 0.00 in0.0 mm 0.00 in0.0 mm 0.00 in0.0 mm
04:20 AM 37.8°F3.2°C 33.1°F0.6°C 83% 2.0 mph SSW3.2 kmh SSW -- 30.08 in1018.6 mb 0.00 in0.0 mm 0.00 in0.0 mm 0.00 in0.0 mm
04:25 AM 37.8°F3.2°C 33.1°F0.6°C 83% 6.0 mph SW9.7 kmh SW 11.0 mph17.7 kmh 30.08 in1018.6 mb 0.00 in0.0 mm 0.00 in0.0 mm 0.00 in0.0 mm
04:30 AM 37.9°F3.3°C 32.9°F0.5°C 82% 9.0 mph S14.5 kmh S -- 30.07 in1018.3 mb 0.00 in0.0 mm 0.00 in0.0 mm 0.00 in0.0 mm
04:35 AM 37.9°F3.3°C 32.9°F0.5°C 82% 5.0 mph S8.0 kmh S -- 30.07 in1018.3 mb 0.00 in0.0 mm 0.00 in0.0 mm 0.00 in0.0 mm
04:40 AM 37.9°F3.3°C 33.3°F0.7°C 83% 6.0 mph SE9.7 kmh SE -- 30.07 in1018.3 mb 0.01 in0.3 mm 0.12 in3.0 mm 0.01 in0.3 mm
04:45 AM 38.0°F3.3°C 32.9°F0.5°C 82% 2.0 mph SW3.2 kmh SW -- 30.07 in1018.3 mb 0.01 in0.3 mm 0.00 in0.0 mm 0.01 in0.3 mm
04:50 AM 38.3°F3.5°C 33.3°F0.7°C 82% 5.0 mph S8.0 kmh S 13.0 mph20.9 kmh 30.07 in1018.3 mb 0.02 in0.5 mm 0.12 in3.0 mm 0.02 in0.5 mm
04:55 AM 38.4°F3.6°C 33.1°F0.6°C 81% 3.0 mph S4.8 kmh S -- 30.07 in1018.3 mb 0.02 in0.5 mm 0.00 in0.0 mm 0.02 in0.5 mm
05:00 AM 38.3°F3.5°C 33.1°F0.6°C 81% 2.0 mph SW3.2 kmh SW -- 30.07 in1018.3 mb 0.02 in0.5 mm 0.00 in0.0 mm 0.02 in0.5 mm
05:05 AM 38.2°F3.4°C 33.1°F0.6°C 82% Calm Calm -- 30.07 in1018.3 mb 0.02 in0.5 mm 0.00 in0.0 mm 0.02 in0.5 mm
05:10 AM 38.1°F3.4°C 33.1°F0.6°C 82% 5.0 mph WSW8.0 kmh WSW -- 30.07 in1018.3 mb 0.02 in0.5 mm 0.00 in0.0 mm 0.02 in0.5 mm
05:15 AM 38.0°F3.3°C 32.9°F0.5°C 82% Calm Calm 5.0 mph8.0 kmh 30.06 in1017.9 mb 0.02 in0.5 mm 0.00 in0.0 mm 0.02 in0.5 mm
05:20 AM 37.9°F3.3°C 32.9°F0.5°C 82% 2.0 mph WSW3.2 kmh WSW -- 30.06 in1017.9 mb 0.02 in0.5 mm 0.00 in0.0 mm 0.02 in0.5 mm
05:25 AM 37.9°F3.3°C 32.9°F0.5°C 82% 4.0 mph S6.4 kmh S -- 30.06 in1017.9 mb 0.03 in0.8 mm 0.12 in3.0 mm 0.03 in0.8 mm
05:30 AM 38.5°F3.6°C 33.1°F0.6°C 81% 4.0 mph SW6.4 kmh SW -- 30.07 in1018.3 mb 0.03 in0.8 mm 0.00 in0.0 mm 0.03 in0.8 mm
05:35 AM 38.7°F3.7°C 33.1°F0.6°C 80% 1.0 mph SSE1.6 kmh SSE -- 30.06 in1017.9 mb 0.03 in0.8 mm 0.00 in0.0 mm 0.03 in0.8 mm
05:40 AM 38.7°F3.7°C 33.1°F0.6°C 80% 2.0 mph SW3.2 kmh SW 6.0 mph9.7 kmh 30.06 in1017.9 mb 0.02 in0.5 mm 0.00 in0.0 mm 0.03 in0.8 mm
05:45 AM 38.6°F3.7°C 33.1°F0.6°C 80% 5.0 mph WSW8.0 kmh WSW -- 30.06 in1017.9 mb 0.02 in0.5 mm 0.00 in0.0 mm 0.03 in0.8 mm
05:50 AM 38.7°F3.7°C 33.1°F0.6°C 80% 2.0 mph S3.2 kmh S -- 30.06 in1017.9 mb 0.02 in0.5 mm 0.00 in0.0 mm 0.04 in1.0 mm
05:55 AM 38.6°F3.7°C 33.1°F0.6°C 80% 3.0 mph SW4.8 kmh SW -- 30.06 in1017.9 mb 0.02 in0.5 mm 0.00 in0.0 mm 0.04 in1.0 mm
06:00 AM 38.6°F3.7°C 33.1°F0.6°C 80% 4.0 mph SW6.4 kmh SW -- 30.06 in1017.9 mb 0.02 in0.5 mm 0.00 in0.0 mm 0.04 in1.0 mm
06:05 AM 38.6°F3.7°C 33.1°F0.6°C 80% 1.0 mph SSW1.6 kmh SSW 7.0 mph11.3 kmh 30.06 in1017.9 mb 0.03 in0.8 mm 0.12 in3.0 mm 0.05 in1.3 mm
06:10 AM 38.6°F3.7°C 33.1°F0.6°C 80% 2.0 mph SSW3.2 kmh SSW -- 30.06 in1017.9 mb 0.02 in0.5 mm 0.00 in0.0 mm 0.05 in1.3 mm
06:15 AM 38.6°F3.7°C 33.1°F0.6°C 80% 3.0 mph WSW4.8 kmh WSW -- 30.06 in1017.9 mb 0.02 in0.5 mm 0.00 in0.0 mm 0.05 in1.3 mm
06:20 AM 38.8°F3.8°C 33.3°F0.7°C 80% 6.0 mph WNW9.7 kmh WNW -- 30.05 in1017.6 mb 0.02 in0.5 mm 0.00 in0.0 mm 0.05 in1.3 mm
06:25 AM 39.1°F3.9°C 33.1°F0.6°C 79% 3.0 mph SW4.8 kmh SW -- 30.05 in1017.6 mb 0.02 in0.5 mm 0.00 in0.0 mm 0.05 in1.3 mm
06:30 AM 39.1°F3.9°C 33.1°F0.6°C 79% 5.0 mph SW8.0 kmh SW 8.0 mph12.9 kmh 30.06 in1017.9 mb 0.02 in0.5 mm 0.00 in0.0 mm 0.06 in1.5 mm
06:35 AM 39.1°F3.9°C 33.4°F0.8°C 80% 7.0 mph WSW11.3 kmh WSW -- 30.05 in1017.6 mb 0.02 in0.5 mm 0.00 in0.0 mm 0.06 in1.5 mm
06:40 AM 39.1°F3.9°C 33.4°F0.8°C 80% 5.0 mph WSW8.0 kmh WSW -- 30.05 in1017.6 mb 0.03 in0.8 mm 0.12 in3.0 mm 0.06 in1.5 mm
06:45 AM 39.1°F3.9°C 33.4°F0.8°C 80% 6.0 mph SW9.7 kmh SW -- 30.05 in1017.6 mb 0.03 in0.8 mm 0.00 in0.0 mm 0.06 in1.5 mm
06:50 AM 39.3°F4.1°C 33.8°F1.0°C 80% 10.0 mph WSW16.1 kmh WSW -- 30.05 in1017.6 mb 0.02 in0.5 mm 0.00 in0.0 mm 0.06 in1.5 mm
06:55 AM 39.7°F4.3°C 33.8°F1.0°C 79% 6.0 mph SW9.7 kmh SW 12.0 mph19.3 kmh 30.05 in1017.6 mb 0.03 in0.8 mm 0.12 in3.0 mm 0.07 in1.8 mm
07:00 AM 39.6°F4.2°C 33.6°F0.9°C 79% 5.0 mph S8.0 kmh S -- 30.05 in1017.6 mb 0.03 in0.8 mm 0.00 in0.0 mm 0.07 in1.8 mm
07:05 AM 39.6°F4.2°C 34.0°F1.1°C 80% 4.0 mph SW6.4 kmh SW -- 30.05 in1017.6 mb 0.03 in0.8 mm 0.00 in0.0 mm 0.08 in2.0 mm
07:10 AM 39.6°F4.2°C 34.0°F1.1°C 80% 3.0 mph SSW4.8 kmh SSW -- 30.05 in1017.6 mb 0.03 in0.8 mm 0.00 in0.0 mm 0.08 in2.0 mm
07:15 AM 39.5°F4.2°C 34.0°F1.1°C 80% 2.0 mph SSW3.2 kmh SSW -- 30.05 in1017.6 mb 0.04 in1.0 mm 0.12 in3.0 mm 0.09 in2.3 mm
07:20 AM 39.4°F4.1°C 33.8°F1.0°C 80% Calm Calm 3.0 mph4.8 kmh 30.05 in1017.6 mb 0.04 in1.0 mm 0.00 in0.0 mm 0.09 in2.3 mm
07:25 AM 39.5°F4.2°C 34.0°F1.1°C 80% Calm Calm -- 30.05 in1017.6 mb 0.05 in1.3 mm 0.12 in3.0 mm 0.09 in2.3 mm
07:30 AM 39.5°F4.2°C 34.0°F1.1°C 80% Calm Calm -- 30.05 in1017.6 mb 0.04 in1.0 mm 0.00 in0.0 mm 0.09 in2.3 mm
07:35 AM 39.2°F4.0°C 33.8°F1.0°C 81% 1.0 mph SW1.6 kmh SW -- 30.05 in1017.6 mb 0.04 in1.0 mm 0.00 in0.0 mm 0.09 in2.3 mm
07:40 AM 38.8°F3.8°C 33.4°F0.8°C 81% 1.0 mph SW1.6 kmh SW -- 30.05 in1017.6 mb 0.04 in1.0 mm 0.00 in0.0 mm 0.10 in2.5 mm
07:45 AM 38.9°F3.8°C 33.8°F1.0°C 82% 1.0 mph SSW1.6 kmh SSW 4.0 mph6.4 kmh 30.05 in1017.6 mb 0.04 in1.0 mm 0.00 in0.0 mm 0.10 in2.5 mm
07:50 AM 39.1°F3.9°C 34.0°F1.1°C 82% 1.0 mph S1.6 kmh S -- 30.05 in1017.6 mb 0.05 in1.3 mm 0.12 in3.0 mm 0.11 in2.8 mm
07:55 AM 39.1°F3.9°C 34.0°F1.1°C 82% 2.0 mph S3.2 kmh S -- 30.05 in1017.6 mb 0.04 in1.0 mm 0.00 in0.0 mm 0.11 in2.8 mm
08:00 AM 39.1°F3.9°C 34.0°F1.1°C 82% Calm Calm -- 30.05 in1017.6 mb 0.04 in1.0 mm 0.00 in0.0 mm 0.11 in2.8 mm
08:05 AM 38.5°F3.6°C 33.4°F0.8°C 82% 2.0 mph SSW3.2 kmh SSW -- 30.05 in1017.6 mb 0.04 in1.0 mm 0.00 in0.0 mm 0.12 in3.0 mm
08:10 AM 38.1°F3.4°C 33.4°F0.8°C 83% 3.0 mph SW4.8 kmh SW 4.0 mph6.4 kmh 30.05 in1017.6 mb 0.04 in1.0 mm 0.00 in0.0 mm 0.12 in3.0 mm
08:15 AM 38.5°F3.6°C 34.3°F1.3°C 85% 3.0 mph SW4.8 kmh SW -- 30.05 in1017.6 mb 0.04 in1.0 mm 0.00 in0.0 mm 0.13 in3.3 mm
08:20 AM 38.8°F3.8°C 34.7°F1.5°C 85% 1.0 mph WSW1.6 kmh WSW -- 30.04 in1017.3 mb 0.04 in1.0 mm 0.00 in0.0 mm 0.13 in3.3 mm
08:25 AM 38.8°F3.8°C 34.7°F1.5°C 85% 3.0 mph WSW4.8 kmh WSW -- 30.04 in1017.3 mb 0.03 in0.8 mm 0.00 in0.0 mm 0.13 in3.3 mm
08:30 AM 38.7°F3.7°C 34.5°F1.4°C 85% 4.0 mph SW6.4 kmh SW -- 30.03 in1016.9 mb 0.04 in1.0 mm 0.12 in3.0 mm 0.13 in3.3 mm
08:35 AM 38.6°F3.7°C 34.5°F1.4°C 85% 4.0 mph SW6.4 kmh SW 5.0 mph8.0 kmh 30.03 in1016.9 mb 0.05 in1.3 mm 0.12 in3.0 mm 0.14 in3.6 mm
08:40 AM 38.4°F3.6°C 34.9°F1.6°C 87% 5.0 mph SW8.0 kmh SW -- 30.04 in1017.3 mb 0.04 in1.0 mm 0.00 in0.0 mm 0.14 in3.6 mm
08:45 AM 38.8°F3.8°C 35.2°F1.8°C 87% 1.0 mph WSW1.6 kmh WSW -- 30.04 in1017.3 mb 0.04 in1.0 mm 0.00 in0.0 mm 0.14 in3.6 mm
08:50 AM 39.1°F3.9°C 35.2°F1.8°C 86% 1.0 mph WSW1.6 kmh WSW -- 30.04 in1017.3 mb 0.04 in1.0 mm 0.00 in0.0 mm 0.15 in3.8 mm
08:55 AM 39.3°F4.1°C 35.6°F2.0°C 86% Calm Calm -- 30.04 in1017.3 mb 0.04 in1.0 mm 0.00 in0.0 mm 0.15 in3.8 mm
09:00 AM 39.2°F4.0°C 35.4°F1.9°C 86% Calm Calm 3.0 mph4.8 kmh 30.04 in1017.3 mb 0.05 in1.3 mm 0.01 in0.3 mm 0.16 in4.1 mm
09:05 AM 39.0°F3.9°C 35.2°F1.8°C 86% Calm Calm -- 30.04 in1017.3 mb 0.04 in1.0 mm 0.00 in0.0 mm 0.16 in4.1 mm
09:10 AM 38.7°F3.7°C 34.9°F1.6°C 86% Calm Calm -- 30.04 in1017.3 mb 0.04 in1.0 mm 0.00 in0.0 mm 0.16 in4.1 mm
09:15 AM 38.3°F3.5°C 34.5°F1.4°C 86% Calm Calm -- 30.05 in1017.6 mb 0.04 in1.0 mm 0.00 in0.0 mm 0.17 in4.3 mm
09:20 AM 38.0°F3.3°C 34.3°F1.3°C 87% 1.0 mph SW1.6 kmh SW -- 30.05 in1017.6 mb 0.04 in1.0 mm 0.00 in0.0 mm 0.17 in4.3 mm
09:25 AM 37.6°F3.1°C 34.0°F1.1°C 87% Calm Calm 3.0 mph4.8 kmh 30.04 in1017.3 mb 0.05 in1.3 mm 0.12 in3.0 mm 0.17 in4.3 mm
09:30 AM 37.5°F3.1°C 34.3°F1.3°C 88% 2.0 mph SW3.2 kmh SW -- 30.05 in1017.6 mb 0.04 in1.0 mm 0.00 in0.0 mm 0.17 in4.3 mm
09:35 AM 37.4°F3.0°C 34.2°F1.2°C 88% Calm Calm -- 30.04 in1017.3 mb 0.03 in0.8 mm 0.00 in0.0 mm 0.17 in4.3 mm
09:40 AM 37.1°F2.8°C 33.8°F1.0°C 88% 3.0 mph SW4.8 kmh SW -- 30.05 in1017.6 mb 0.03 in0.8 mm 0.00 in0.0 mm 0.17 in4.3 mm
09:45 AM 37.2°F2.9°C 34.3°F1.3°C 89% Calm Calm -- 30.04 in1017.3 mb 0.04 in1.0 mm 0.12 in3.0 mm 0.18 in4.6 mm
09:50 AM 37.1°F2.8°C 34.2°F1.2°C 89% 2.0 mph WSW3.2 kmh WSW 4.0 mph6.4 kmh 30.04 in1017.3 mb 0.03 in0.8 mm 0.00 in0.0 mm 0.18 in4.6 mm
09:55 AM 36.7°F2.6°C 33.8°F1.0°C 89% 2.0 mph WSW3.2 kmh WSW -- 30.04 in1017.3 mb 0.03 in0.8 mm 0.00 in0.0 mm 0.18 in4.6 mm
10:00 AM 36.6°F2.6°C 34.0°F1.1°C 90% 6.0 mph WSW9.7 kmh WSW -- 30.04 in1017.3 mb 0.02 in0.5 mm 0.00 in0.0 mm 0.18 in4.6 mm
10:05 AM 36.4°F2.4°C 33.6°F0.9°C 90% 5.0 mph WSW8.0 kmh WSW -- 30.04 in1017.3 mb 0.03 in0.8 mm 0.12 in3.0 mm 0.19 in4.8 mm
10:10 AM 36.5°F2.5°C 33.8°F1.0°C 90% 3.0 mph WSW4.8 kmh WSW -- 30.04 in1017.3 mb 0.03 in0.8 mm 0.00 in0.0 mm 0.19 in4.8 mm
10:15 AM 36.8°F2.7°C 34.5°F1.4°C 91% 5.0 mph WSW8.0 kmh WSW 6.0 mph9.7 kmh 30.04 in1017.3 mb 0.02 in0.5 mm 0.00 in0.0 mm 0.19 in4.8 mm
10:20 AM 37.0°F2.8°C 34.7°F1.5°C 91% 5.0 mph WSW8.0 kmh WSW -- 30.04 in1017.3 mb 0.03 in0.8 mm 0.12 in3.0 mm 0.20 in5.1 mm
10:25 AM 37.2°F2.9°C 34.5°F1.4°C 90% 7.0 mph WSW11.3 kmh WSW -- 30.04 in1017.3 mb 0.02 in0.5 mm 0.00 in0.0 mm 0.20 in5.1 mm
10:30 AM 37.0°F2.8°C 34.3°F1.3°C 90% 3.0 mph WSW4.8 kmh WSW -- 30.04 in1017.3 mb 0.02 in0.5 mm 0.00 in0.0 mm 0.20 in5.1 mm
10:35 AM 37.4°F3.0°C 35.1°F1.7°C 91% 5.0 mph WSW8.0 kmh WSW -- 30.04 in1017.3 mb 0.03 in0.8 mm 0.12 in3.0 mm 0.20 in5.1 mm
10:40 AM 38.4°F3.6°C 35.8°F2.1°C 90% 4.0 mph WSW6.4 kmh WSW 6.0 mph9.7 kmh 30.04 in1017.3 mb 0.03 in0.8 mm 0.00 in0.0 mm 0.20 in5.1 mm
10:45 AM 39.3°F4.1°C 36.5°F2.5°C 89% Calm Calm -- 30.04 in1017.3 mb 0.02 in0.5 mm 0.00 in0.0 mm 0.20 in5.1 mm
10:50 AM 39.3°F4.1°C 35.8°F2.1°C 87% Calm Calm -- 30.04 in1017.3 mb 0.03 in0.8 mm 0.12 in3.0 mm 0.21 in5.3 mm
10:55 AM 38.8°F3.8°C 35.1°F1.7°C 86% Calm Calm -- 30.03 in1016.9 mb 0.03 in0.8 mm 0.00 in0.0 mm 0.21 in5.3 mm
11:00 AM 38.3°F3.5°C 34.5°F1.4°C 86% Calm Calm -- 30.03 in1016.9 mb 0.04 in1.0 mm 0.01 in0.3 mm 0.22 in5.6 mm
11:05 AM 38.0°F3.3°C 34.3°F1.3°C 87% 1.0 mph SW1.6 kmh SW 3.0 mph4.8 kmh 30.03 in1016.9 mb 0.03 in0.8 mm 0.00 in0.0 mm 0.22 in5.6 mm
11:10 AM 38.0°F3.3°C 34.3°F1.3°C 87% Calm Calm -- 30.03 in1016.9 mb 0.03 in0.8 mm 0.00 in0.0 mm 0.22 in5.6 mm
11:15 AM 38.3°F3.5°C 35.1°F1.7°C 88% Calm Calm -- 30.03 in1016.9 mb 0.04 in1.0 mm 0.12 in3.0 mm 0.23 in5.8 mm
11:20 AM 39.2°F4.0°C 35.6°F2.0°C 87% 1.0 mph S1.6 kmh S -- 30.03 in1016.9 mb 0.03 in0.8 mm 0.00 in0.0 mm 0.23 in5.8 mm
11:25 AM 39.6°F4.2°C 35.1°F1.7°C 84% Calm Calm -- 30.03 in1016.9 mb 0.04 in1.0 mm 0.12 in3.0 mm 0.24 in6.1 mm
11:30 AM 39.5°F4.2°C 34.9°F1.6°C 83% 2.0 mph SW3.2 kmh SW 3.0 mph4.8 kmh 30.03 in1016.9 mb 0.04 in1.0 mm 0.00 in0.0 mm 0.24 in6.1 mm
11:35 AM 39.7°F4.3°C 35.1°F1.7°C 83% Calm Calm -- 30.03 in1016.9 mb 0.03 in0.8 mm 0.00 in0.0 mm 0.24 in6.1 mm
11:40 AM 39.8°F4.3°C 35.1°F1.7°C 83% 2.0 mph SW3.2 kmh SW -- 30.02 in1016.6 mb 0.03 in0.8 mm 0.00 in0.0 mm 0.24 in6.1 mm
11:45 AM 40.0°F4.4°C 35.2°F1.8°C 83% 1.0 mph SW1.6 kmh SW -- 30.03 in1016.9 mb 0.03 in0.8 mm 0.00 in0.0 mm 0.24 in6.1 mm
11:50 AM 41.0°F5.0°C 36.0°F2.2°C 82% 4.0 mph W6.4 kmh W -- 30.02 in1016.6 mb 0.03 in0.8 mm 0.00 in0.0 mm 0.24 in6.1 mm
11:55 AM 41.4°F5.2°C 35.4°F1.9°C 79% Calm Calm 8.0 mph12.9 kmh 30.03 in1016.9 mb 0.03 in0.8 mm 0.00 in0.0 mm 0.24 in6.1 mm
12:00 PM 41.4°F5.2°C 35.1°F1.7°C 78% 4.0 mph W6.4 kmh W -- 30.02 in1016.6 mb 0.03 in0.8 mm 0.00 in0.0 mm 0.25 in6.4 mm
12:05 PM 41.7°F5.4°C 34.7°F1.5°C 76% 4.0 mph WSW6.4 kmh WSW -- 30.02 in1016.6 mb 0.03 in0.8 mm 0.00 in0.0 mm 0.25 in6.4 mm
12:10 PM 41.8°F5.4°C 34.3°F1.3°C 75% 3.0 mph SW4.8 kmh SW -- 30.02 in1016.6 mb 0.03 in0.8 mm 0.00 in0.0 mm 0.25 in6.4 mm
12:15 PM 41.8°F5.4°C 34.3°F1.3°C 75% 3.0 mph WSW4.8 kmh WSW -- 30.02 in1016.6 mb 0.02 in0.5 mm 0.00 in0.0 mm 0.25 in6.4 mm
12:20 PM 41.9°F5.5°C 34.5°F1.4°C 75% 3.0 mph WSW4.8 kmh WSW 6.0 mph9.7 kmh 30.02 in1016.6 mb 0.03 in0.8 mm 0.12 in3.0 mm 0.26 in6.6 mm
12:25 PM 41.7°F5.4°C 34.3°F1.3°C 75% 2.0 mph SW3.2 kmh SW -- 30.02 in1016.6 mb 0.02 in0.5 mm 0.00 in0.0 mm 0.26 in6.6 mm
12:30 PM 41.8°F5.4°C 34.3°F1.3°C 75% 7.0 mph WSW11.3 kmh WSW -- 30.02 in1016.6 mb 0.03 in0.8 mm 0.12 in3.0 mm 0.27 in6.9 mm
12:35 PM 42.0°F5.6°C 34.3°F1.3°C 74% 5.0 mph WSW8.0 kmh WSW -- 30.02 in1016.6 mb 0.03 in0.8 mm 0.00 in0.0 mm 0.27 in6.9 mm
12:40 PM 42.0°F5.6°C 34.3°F1.3°C 74% 6.0 mph WSW9.7 kmh WSW -- 30.02 in1016.6 mb 0.03 in0.8 mm 0.00 in0.0 mm 0.27 in6.9 mm
12:45 PM 41.9°F5.5°C 34.2°F1.2°C 74% 4.0 mph SW6.4 kmh SW 11.0 mph17.7 kmh 30.02 in1016.6 mb 0.03 in0.8 mm 0.00 in0.0 mm 0.27 in6.9 mm
12:50 PM 41.8°F5.4°C 34.0°F1.1°C 74% Calm Calm -- 30.02 in1016.6 mb 0.03 in0.8 mm 0.00 in0.0 mm 0.28 in7.1 mm
12:55 PM 41.7°F5.4°C 34.0°F1.1°C 74% 1.0 mph WSW1.6 kmh WSW -- 30.02 in1016.6 mb 0.03 in0.8 mm 0.00 in0.0 mm 0.28 in7.1 mm
01:00 PM 41.7°F5.4°C 34.0°F1.1°C 74% Calm Calm -- 30.02 in1016.6 mb 0.03 in0.8 mm 0.00 in0.0 mm 0.28 in7.1 mm
01:05 PM 41.7°F5.4°C 34.0°F1.1°C 74% 2.0 mph W3.2 kmh W -- 30.02 in1016.6 mb 0.03 in0.8 mm 0.00 in0.0 mm 0.28 in7.1 mm
01:10 PM 41.7°F5.4°C 34.0°F1.1°C 74% 2.0 mph W3.2 kmh W 4.0 mph6.4 kmh 30.02 in1016.6 mb 0.03 in0.8 mm 0.00 in0.0 mm 0.28 in7.1 mm
01:15 PM 40.9°F4.9°C 33.4°F0.8°C 75% Calm Calm -- 30.01 in1016.3 mb 0.03 in0.8 mm 0.00 in0.0 mm 0.28 in7.1 mm
01:20 PM 40.7°F4.8°C 34.0°F1.1°C 77% 3.0 mph NE4.8 kmh NE -- 30.01 in1016.3 mb 0.03 in0.8 mm 0.00 in0.0 mm 0.29 in7.4 mm
01:25 PM 41.2°F5.1°C 34.2°F1.2°C 76% Calm Calm -- 30.01 in1016.3 mb 0.03 in0.8 mm 0.00 in0.0 mm 0.29 in7.4 mm
01:30 PM 41.5°F5.3°C 34.5°F1.4°C 76% Calm Calm -- 30.01 in1016.3 mb 0.03 in0.8 mm 0.00 in0.0 mm 0.30 in7.6 mm
01:35 PM 41.6°F5.3°C 34.5°F1.4°C 76% 2.0 mph NW3.2 kmh NW 3.0 mph4.8 kmh 30.01 in1016.3 mb 0.03 in0.8 mm 0.00 in0.0 mm 0.30 in7.6 mm
01:40 PM 41.6°F5.3°C 34.5°F1.4°C 76% Calm Calm -- 30.01 in1016.3 mb 0.03 in0.8 mm 0.00 in0.0 mm 0.30 in7.6 mm
01:45 PM 40.7°F4.8°C 33.6°F0.9°C 76% Calm Calm -- 30.01 in1016.3 mb 0.03 in0.8 mm 0.00 in0.0 mm 0.30 in7.6 mm
01:50 PM 40.8°F4.9°C 34.2°F1.2°C 77% Calm Calm -- 30.01 in1016.3 mb 0.03 in0.8 mm 0.00 in0.0 mm 0.31 in7.9 mm
01:55 PM 40.8°F4.9°C 34.2°F1.2°C 77% 1.0 mph SE1.6 kmh SE -- 30.01 in1016.3 mb 0.03 in0.8 mm 0.00 in0.0 mm 0.31 in7.9 mm
02:00 PM 40.8°F4.9°C 34.2°F1.2°C 77% Calm Calm 6.0 mph9.7 kmh 30.00 in1015.9 mb 0.02 in0.5 mm 0.00 in0.0 mm 0.31 in7.9 mm
02:05 PM 40.5°F4.7°C 33.8°F1.0°C 77% Calm Calm -- 30.01 in1016.3 mb 0.03 in0.8 mm 0.12 in3.0 mm 0.31 in7.9 mm
02:10 PM 40.3°F4.6°C 34.0°F1.1°C 78% 1.0 mph S1.6 kmh S -- 30.01 in1016.3 mb 0.03 in0.8 mm 0.00 in0.0 mm 0.31 in7.9 mm
02:15 PM 40.9°F4.9°C 34.2°F1.2°C 77% 5.0 mph SW8.0 kmh SW -- 30.01 in1016.3 mb 0.03 in0.8 mm 0.00 in0.0 mm 0.31 in7.9 mm
02:20 PM 41.5°F5.3°C 34.5°F1.4°C 76% 4.0 mph SSW6.4 kmh SSW -- 30.00 in1015.9 mb 0.02 in0.5 mm 0.00 in0.0 mm 0.31 in7.9 mm
02:25 PM 42.0°F5.6°C 34.3°F1.3°C 74% Calm Calm 7.0 mph11.3 kmh 30.00 in1015.9 mb 0.03 in0.8 mm 0.12 in3.0 mm 0.32 in8.1 mm
02:30 PM 42.1°F5.6°C 34.3°F1.3°C 74% Calm Calm -- 30.00 in1015.9 mb 0.02 in0.5 mm 0.00 in0.0 mm 0.32 in8.1 mm
02:35 PM 41.9°F5.5°C 34.2°F1.2°C 74% 1.0 mph S1.6 kmh S -- 29.99 in1015.6 mb 0.03 in0.8 mm 0.12 in3.0 mm 0.33 in8.4 mm
02:40 PM 41.4°F5.2°C 34.0°F1.1°C 75% 1.0 mph NE1.6 kmh NE -- 29.99 in1015.6 mb 0.03 in0.8 mm 0.00 in0.0 mm 0.33 in8.4 mm
02:45 PM 42.1°F5.6°C 34.7°F1.5°C 75% 4.0 mph NE6.4 kmh NE -- 30.00 in1015.9 mb 0.03 in0.8 mm 0.00 in0.0 mm 0.33 in8.4 mm
02:50 PM 42.3°F5.7°C 34.5°F1.4°C 74% 2.0 mph WSW3.2 kmh WSW 14.0 mph22.5 kmh 29.99 in1015.6 mb 0.02 in0.5 mm 0.00 in0.0 mm 0.33 in8.4 mm
02:55 PM 41.8°F5.4°C 33.8°F1.0°C 73% 2.0 mph SW3.2 kmh SW -- 29.99 in1015.6 mb 0.02 in0.5 mm 0.00 in0.0 mm 0.33 in8.4 mm
03:00 PM 41.1°F5.1°C 33.8°F1.0°C 75% 2.0 mph SW3.2 kmh SW -- 29.99 in1015.6 mb 0.03 in0.8 mm 0.01 in0.3 mm 0.34 in8.6 mm
03:05 PM 41.5°F5.3°C 34.2°F1.2°C 75% Calm Calm -- 29.99 in1015.6 mb 0.02 in0.5 mm 0.00 in0.0 mm 0.34 in8.6 mm
03:10 PM 41.5°F5.3°C 34.2°F1.2°C 75% Calm Calm -- 29.99 in1015.6 mb 0.02 in0.5 mm 0.00 in0.0 mm 0.34 in8.6 mm
03:15 PM 41.6°F5.3°C 34.2°F1.2°C 75% 1.0 mph SW1.6 kmh SW 4.0 mph6.4 kmh 29.99 in1015.6 mb 0.03 in0.8 mm 0.12 in3.0 mm 0.35 in8.9 mm
03:20 PM 42.0°F5.6°C 34.3°F1.3°C 74% 3.0 mph WSW4.8 kmh WSW -- 29.99 in1015.6 mb 0.03 in0.8 mm 0.00 in0.0 mm 0.35 in8.9 mm
03:25 PM 42.1°F5.6°C 34.0°F1.1°C 73% 2.0 mph SSW3.2 kmh SSW -- 29.99 in1015.6 mb 0.02 in0.5 mm 0.00 in0.0 mm 0.35 in8.9 mm
03:30 PM 41.8°F5.4°C 33.8°F1.0°C 73% 2.0 mph SW3.2 kmh SW -- 29.99 in1015.6 mb 0.02 in0.5 mm 0.00 in0.0 mm 0.35 in8.9 mm
03:35 PM 41.3°F5.2°C 33.4°F0.8°C 73% 2.0 mph SW3.2 kmh SW -- 29.99 in1015.6 mb 0.02 in0.5 mm 0.00 in0.0 mm 0.35 in8.9 mm
03:40 PM 40.7°F4.8°C 33.1°F0.6°C 74% 2.0 mph SW3.2 kmh SW 3.0 mph4.8 kmh 29.99 in1015.6 mb 0.02 in0.5 mm 0.00 in0.0 mm 0.35 in8.9 mm
03:45 PM 39.5°F4.2°C 32.7°F0.4°C 76% 3.0 mph SW4.8 kmh SW -- 29.99 in1015.6 mb 0.02 in0.5 mm 0.00 in0.0 mm 0.35 in8.9 mm
03:50 PM 39.3°F4.1°C 32.7°F0.4°C 77% 5.0 mph SW8.0 kmh SW -- 29.99 in1015.6 mb 0.02 in0.5 mm 0.00 in0.0 mm 0.35 in8.9 mm
03:55 PM 38.4°F3.6°C 32.5°F0.3°C 79% 2.0 mph WSW3.2 kmh WSW -- 30.00 in1015.9 mb 0.02 in0.5 mm 0.00 in0.0 mm 0.35 in8.9 mm
04:00 PM 38.4°F3.6°C 32.5°F0.3°C 79% Calm Calm -- 30.00 in1015.9 mb 0.02 in0.5 mm 0.00 in0.0 mm 0.35 in8.9 mm
04:05 PM 38.9°F3.8°C 32.9°F0.5°C 79% Calm Calm 3.0 mph4.8 kmh 30.00 in1015.9 mb 0.02 in0.5 mm 0.00 in0.0 mm 0.35 in8.9 mm
04:10 PM 39.3°F4.1°C 33.1°F0.6°C 78% 1.0 mph WSW1.6 kmh WSW -- 30.00 in1015.9 mb 0.02 in0.5 mm 0.00 in0.0 mm 0.35 in8.9 mm
04:15 PM 39.5°F4.2°C 32.9°F0.5°C 77% 1.0 mph SW1.6 kmh SW -- 30.00 in1015.9 mb 0.01 in0.3 mm 0.00 in0.0 mm 0.35 in8.9 mm
04:20 PM 39.7°F4.3°C 33.1°F0.6°C 77% 1.0 mph SW1.6 kmh SW -- 30.00 in1015.9 mb 0.01 in0.3 mm 0.00 in0.0 mm 0.35 in8.9 mm
04:25 PM 39.7°F4.3°C 33.1°F0.6°C 77% 3.0 mph SSW4.8 kmh SSW -- 30.00 in1015.9 mb 0.01 in0.3 mm 0.00 in0.0 mm 0.35 in8.9 mm
04:30 PM 39.7°F4.3°C 32.7°F0.4°C 76% 3.0 mph SW4.8 kmh SW 5.0 mph8.0 kmh 30.00 in1015.9 mb 0.01 in0.3 mm 0.00 in0.0 mm 0.35 in8.9 mm
04:35 PM 40.2°F4.6°C 33.1°F0.6°C 75% 2.0 mph SSW3.2 kmh SSW -- 30.00 in1015.9 mb 0.01 in0.3 mm 0.00 in0.0 mm 0.35 in8.9 mm
04:40 PM 40.7°F4.8°C 32.7°F0.4°C 73% 1.0 mph SSW1.6 kmh SSW -- 30.00 in1015.9 mb 0.02 in0.5 mm 0.12 in3.0 mm 0.36 in9.1 mm
04:45 PM 40.7°F4.8°C 32.7°F0.4°C 73% 1.0 mph SSW1.6 kmh SSW -- 30.00 in1015.9 mb 0.02 in0.5 mm 0.00 in0.0 mm 0.36 in9.1 mm
04:50 PM 40.3°F4.6°C 32.7°F0.4°C 74% 3.0 mph SW4.8 kmh SW -- 30.00 in1015.9 mb 0.01 in0.3 mm 0.00 in0.0 mm 0.36 in9.1 mm
04:55 PM 40.6°F4.8°C 32.7°F0.4°C 73% 1.0 mph WSW1.6 kmh WSW 4.0 mph6.4 kmh 30.00 in1015.9 mb 0.01 in0.3 mm 0.00 in0.0 mm 0.36 in9.1 mm
05:00 PM 40.6°F4.8°C 32.7°F0.4°C 73% 2.0 mph N3.2 kmh N -- 30.00 in1015.9 mb 0.01 in0.3 mm 0.00 in0.0 mm 0.36 in9.1 mm
05:05 PM 41.1°F5.1°C 33.3°F0.7°C 73% 5.0 mph NE8.0 kmh NE -- 29.99 in1015.6 mb 0.01 in0.3 mm 0.00 in0.0 mm 0.36 in9.1 mm
05:10 PM 41.5°F5.3°C 33.3°F0.7°C 72% 4.0 mph N6.4 kmh N -- 29.99 in1015.6 mb 0.01 in0.3 mm 0.00 in0.0 mm 0.36 in9.1 mm
05:15 PM 41.6°F5.3°C 32.9°F0.5°C 71% 3.0 mph NE4.8 kmh NE -- 29.99 in1015.6 mb 0.01 in0.3 mm 0.00 in0.0 mm 0.36 in9.1 mm
05:20 PM 41.3°F5.2°C 32.7°F0.4°C 71% 2.0 mph SSW3.2 kmh SSW 10.0 mph16.1 kmh 29.99 in1015.6 mb 0.01 in0.3 mm 0.00 in0.0 mm 0.36 in9.1 mm
05:25 PM 40.7°F4.8°C 32.7°F0.4°C 73% Calm Calm -- 29.99 in1015.6 mb 0.01 in0.3 mm 0.00 in0.0 mm 0.36 in9.1 mm
05:30 PM 41.0°F5.0°C 32.7°F0.4°C 72% 3.0 mph NW4.8 kmh NW -- 29.99 in1015.6 mb 0.01 in0.3 mm 0.00 in0.0 mm 0.36 in9.1 mm
05:35 PM 41.2°F5.1°C 32.9°F0.5°C 72% 5.0 mph NW8.0 kmh NW -- 29.99 in1015.6 mb 0.01 in0.3 mm 0.00 in0.0 mm 0.36 in9.1 mm
05:40 PM 41.1°F5.1°C 32.9°F0.5°C 72% 4.0 mph NNE6.4 kmh NNE -- 30.00 in1015.9 mb 0.00 in0.0 mm 0.00 in0.0 mm 0.36 in9.1 mm
05:45 PM 40.9°F4.9°C 32.5°F0.3°C 72% 3.0 mph NNE4.8 kmh NNE 7.0 mph11.3 kmh 30.00 in1015.9 mb 0.00 in0.0 mm 0.00 in0.0 mm 0.36 in9.1 mm
05:50 PM 40.9°F4.9°C 32.5°F0.3°C 72% 4.0 mph NE6.4 kmh NE -- 29.99 in1015.6 mb 0.00 in0.0 mm 0.00 in0.0 mm 0.36 in9.1 mm
05:55 PM 40.9°F4.9°C 32.5°F0.3°C 72% Calm Calm -- 29.99 in1015.6 mb 0.00 in0.0 mm 0.00 in0.0 mm 0.36 in9.1 mm
06:00 PM 40.1°F4.5°C 32.5°F0.3°C 74% 1.0 mph NW1.6 kmh NW -- 29.99 in1015.6 mb 0.00 in0.0 mm 0.00 in0.0 mm 0.36 in9.1 mm
06:05 PM 39.7°F4.3°C 32.5°F0.3°C 75% 2.0 mph W3.2 kmh W -- 29.99 in1015.6 mb 0.00 in0.0 mm 0.00 in0.0 mm 0.36 in9.1 mm
06:10 PM 39.9°F4.4°C 32.7°F0.4°C 75% 4.0 mph NW6.4 kmh NW 8.0 mph12.9 kmh 29.99 in1015.6 mb 0.00 in0.0 mm 0.00 in0.0 mm 0.36 in9.1 mm
06:15 PM 40.6°F4.8°C 33.1°F0.6°C 74% 4.0 mph NE6.4 kmh NE -- 29.98 in1015.2 mb 0.00 in0.0 mm 0.00 in0.0 mm 0.36 in9.1 mm
06:20 PM 41.0°F5.0°C 33.1°F0.6°C 73% 1.0 mph NE1.6 kmh NE -- 29.99 in1015.6 mb 0.00 in0.0 mm 0.00 in0.0 mm 0.36 in9.1 mm
06:25 PM 40.6°F4.8°C 32.7°F0.4°C 73% 5.0 mph E8.0 kmh E -- 29.98 in1015.2 mb 0.00 in0.0 mm 0.00 in0.0 mm 0.36 in9.1 mm
06:30 PM 41.1°F5.1°C 33.3°F0.7°C 73% 7.0 mph NE11.3 kmh NE -- 29.98 in1015.2 mb 0.00 in0.0 mm 0.00 in0.0 mm 0.36 in9.1 mm
06:35 PM 41.2°F5.1°C 33.3°F0.7°C 73% 4.0 mph E6.4 kmh E 11.0 mph17.7 kmh 29.98 in1015.2 mb 0.00 in0.0 mm 0.00 in0.0 mm 0.36 in9.1 mm
06:40 PM 41.3°F5.2°C 33.4°F0.8°C 73% 2.0 mph SE3.2 kmh SE -- 29.98 in1015.2 mb 0.00 in0.0 mm 0.00 in0.0 mm 0.36 in9.1 mm
06:45 PM 41.2°F5.1°C 33.3°F0.7°C 73% 4.0 mph NNE6.4 kmh NNE -- 29.97 in1014.9 mb 0.00 in0.0 mm 0.00 in0.0 mm 0.36 in9.1 mm
06:50 PM 41.2°F5.1°C 33.6°F0.9°C 74% 5.0 mph ENE8.0 kmh ENE -- 29.97 in1014.9 mb 0.01 in0.3 mm 0.12 in3.0 mm 0.37 in9.4 mm
06:55 PM 41.5°F5.3°C 33.6°F0.9°C 73% 1.0 mph NW1.6 kmh NW -- 29.98 in1015.2 mb 0.01 in0.3 mm 0.00 in0.0 mm 0.37 in9.4 mm
07:00 PM 41.5°F5.3°C 33.6°F0.9°C 73% 4.0 mph SSW6.4 kmh SSW 11.0 mph17.7 kmh 29.98 in1015.2 mb 0.01 in0.3 mm 0.00 in0.0 mm 0.37 in9.4 mm
07:05 PM 41.6°F5.3°C 33.6°F0.9°C 73% 7.0 mph NE11.3 kmh NE -- 29.98 in1015.2 mb 0.01 in0.3 mm 0.00 in0.0 mm 0.37 in9.4 mm
07:10 PM 41.8°F5.4°C 33.4°F0.8°C 72% 8.0 mph E12.9 kmh E -- 29.98 in1015.2 mb 0.01 in0.3 mm 0.00 in0.0 mm 0.37 in9.4 mm
07:15 PM 42.0°F5.6°C 33.4°F0.8°C 71% 5.0 mph ENE8.0 kmh ENE -- 29.98 in1015.2 mb 0.01 in0.3 mm 0.00 in0.0 mm 0.37 in9.4 mm
07:20 PM 41.9°F5.5°C 33.3°F0.7°C 71% 2.0 mph E3.2 kmh E -- 29.98 in1015.2 mb 0.01 in0.3 mm 0.00 in0.0 mm 0.37 in9.4 mm
07:25 PM 41.8°F5.4°C 33.4°F0.8°C 72% 2.0 mph ENE3.2 kmh ENE 12.0 mph19.3 kmh 29.98 in1015.2 mb 0.01 in0.3 mm 0.00 in0.0 mm 0.37 in9.4 mm
07:30 PM 41.8°F5.4°C 33.4°F0.8°C 72% Calm Calm -- 29.98 in1015.2 mb 0.01 in0.3 mm 0.00 in0.0 mm 0.37 in9.4 mm
07:35 PM 41.6°F5.3°C 33.3°F0.7°C 72% 2.0 mph WSW3.2 kmh WSW -- 29.98 in1015.2 mb 0.01 in0.3 mm 0.00 in0.0 mm 0.37 in9.4 mm
07:40 PM 41.4°F5.2°C 33.4°F0.8°C 73% 5.0 mph NE8.0 kmh NE -- 29.98 in1015.2 mb 0.01 in0.3 mm 0.00 in0.0 mm 0.37 in9.4 mm
07:45 PM 41.6°F5.3°C 33.3°F0.7°C 72% 3.0 mph NE4.8 kmh NE -- 29.98 in1015.2 mb 0.01 in0.3 mm 0.00 in0.0 mm 0.37 in9.4 mm
07:50 PM 41.4°F5.2°C 33.1°F0.6°C 72% 6.0 mph ESE9.7 kmh ESE 8.0 mph12.9 kmh 29.98 in1015.2 mb 0.00 in0.0 mm 0.00 in0.0 mm 0.37 in9.4 mm
07:55 PM 41.6°F5.3°C 33.3°F0.7°C 72% 3.0 mph NNE4.8 kmh NNE -- 29.98 in1015.2 mb 0.00 in0.0 mm 0.00 in0.0 mm 0.37 in9.4 mm
08:00 PM 42.0°F5.6°C 33.4°F0.8°C 71% 7.0 mph E11.3 kmh E -- 29.98 in1015.2 mb 0.00 in0.0 mm 0.00 in0.0 mm 0.37 in9.4 mm
08:05 PM 42.4°F5.8°C 33.4°F0.8°C 70% 5.0 mph ENE8.0 kmh ENE -- 29.98 in1015.2 mb 0.00 in0.0 mm 0.00 in0.0 mm 0.37 in9.4 mm
08:10 PM 42.6°F5.9°C 33.6°F0.9°C 70% 10.0 mph ENE16.1 kmh ENE -- 29.98 in1015.2 mb 0.00 in0.0 mm 0.00 in0.0 mm 0.37 in9.4 mm
08:15 PM 42.5°F5.8°C 33.4°F0.8°C 70% Calm Calm 12.0 mph19.3 kmh 29.97 in1014.9 mb 0.00 in0.0 mm 0.00 in0.0 mm 0.37 in9.4 mm
08:20 PM 42.2°F5.7°C 33.6°F0.9°C 71% 7.0 mph NE11.3 kmh NE -- 29.97 in1014.9 mb 0.00 in0.0 mm 0.00 in0.0 mm 0.37 in9.4 mm
08:25 PM 42.3°F5.7°C 33.3°F0.7°C 70% 3.0 mph ENE4.8 kmh ENE -- 29.97 in1014.9 mb 0.00 in0.0 mm 0.00 in0.0 mm 0.37 in9.4 mm
08:30 PM 42.0°F5.6°C 33.4°F0.8°C 71% 11.0 mph ESE17.7 kmh ESE -- 29.97 in1014.9 mb 0.01 in0.3 mm 0.12 in3.0 mm 0.38 in9.7 mm
08:35 PM 42.0°F5.6°C 33.4°F0.8°C 71% Calm Calm -- 29.98 in1015.2 mb 0.01 in0.3 mm 0.00 in0.0 mm 0.38 in9.7 mm
08:40 PM 42.0°F5.6°C 33.4°F0.8°C 71% Calm Calm 11.0 mph17.7 kmh 29.98 in1015.2 mb 0.01 in0.3 mm 0.00 in0.0 mm 0.38 in9.7 mm
08:45 PM 41.8°F5.4°C 33.1°F0.6°C 71% 2.0 mph SW3.2 kmh SW -- 29.98 in1015.2 mb 0.01 in0.3 mm 0.00 in0.0 mm 0.38 in9.7 mm
08:50 PM 41.6°F5.3°C 32.9°F0.5°C 71% 2.0 mph W3.2 kmh W -- 29.97 in1014.9 mb 0.01 in0.3 mm 0.00 in0.0 mm 0.38 in9.7 mm
08:55 PM 40.9°F4.9°C 32.2°F0.1°C 71% Calm Calm -- 29.98 in1015.2 mb 0.01 in0.3 mm 0.00 in0.0 mm 0.38 in9.7 mm
09:00 PM 40.4°F4.7°C 32.9°F0.5°C 74% 1.0 mph WSW1.6 kmh WSW -- 29.97 in1014.9 mb 0.01 in0.3 mm 0.00 in0.0 mm 0.38 in9.7 mm
09:05 PM 40.4°F4.7°C 32.9°F0.5°C 74% 1.0 mph SW1.6 kmh SW 5.0 mph8.0 kmh 29.97 in1014.9 mb 0.01 in0.3 mm 0.00 in0.0 mm 0.38 in9.7 mm
09:10 PM 40.5°F4.7°C 32.9°F0.5°C 74% Calm Calm -- 29.97 in1014.9 mb 0.01 in0.3 mm 0.00 in0.0 mm 0.38 in9.7 mm
09:15 PM 40.6°F4.8°C 33.1°F0.6°C 74% 3.0 mph SSW4.8 kmh SSW -- 29.97 in1014.9 mb 0.01 in0.3 mm 0.00 in0.0 mm 0.38 in9.7 mm
09:20 PM 40.8°F4.9°C 33.3°F0.7°C 74% 2.0 mph WSW3.2 kmh WSW -- 29.98 in1015.2 mb 0.01 in0.3 mm 0.00 in0.0 mm 0.38 in9.7 mm
09:25 PM 39.8°F4.3°C 32.2°F0.1°C 74% 2.0 mph WSW3.2 kmh WSW -- 29.97 in1014.9 mb 0.01 in0.3 mm 0.00 in0.0 mm 0.38 in9.7 mm
09:30 PM 38.6°F3.7°C 31.8°F-0.1°C 76% 3.0 mph SW4.8 kmh SW 5.0 mph8.0 kmh 29.97 in1014.9 mb 0.01 in0.3 mm 0.00 in0.0 mm 0.38 in9.7 mm
09:35 PM 38.4°F3.6°C 31.8°F-0.1°C 77% 1.0 mph SW1.6 kmh SW -- 29.97 in1014.9 mb 0.00 in0.0 mm 0.00 in0.0 mm 0.38 in9.7 mm
09:40 PM 38.4°F3.6°C 32.2°F0.1°C 78% 3.0 mph SW4.8 kmh SW -- 29.97 in1014.9 mb 0.00 in0.0 mm 0.00 in0.0 mm 0.38 in9.7 mm
09:45 PM 38.9°F3.8°C 32.2°F0.1°C 77% 5.0 mph SW8.0 kmh SW -- 29.97 in1014.9 mb 0.00 in0.0 mm 0.00 in0.0 mm 0.38 in9.7 mm
09:50 PM 39.2°F4.0°C 32.5°F0.3°C 77% 4.0 mph WSW6.4 kmh WSW -- 29.98 in1015.2 mb 0.00 in0.0 mm 0.00 in0.0 mm 0.38 in9.7 mm
09:55 PM 39.2°F4.0°C 32.4°F0.2°C 76% 6.0 mph SW9.7 kmh SW 8.0 mph12.9 kmh 29.98 in1015.2 mb 0.00 in0.0 mm 0.00 in0.0 mm 0.38 in9.7 mm
10:00 PM 38.5°F3.6°C 31.8°F-0.1°C 77% 5.0 mph WSW8.0 kmh WSW -- 29.98 in1015.2 mb 0.00 in0.0 mm 0.00 in0.0 mm 0.38 in9.7 mm
10:05 PM 37.9°F3.3°C 32.0°F0.0°C 79% 5.0 mph SW8.0 kmh SW -- 29.98 in1015.2 mb 0.00 in0.0 mm 0.00 in0.0 mm 0.38 in9.7 mm
10:10 PM 36.7°F2.6°C 31.1°F-0.5°C 80% 6.0 mph SW9.7 kmh SW -- 29.98 in1015.2 mb 0.00 in0.0 mm 0.00 in0.0 mm 0.38 in9.7 mm
10:15 PM 36.4°F2.4°C 31.1°F-0.5°C 81% 7.0 mph WSW11.3 kmh WSW -- 29.98 in1015.2 mb 0.00 in0.0 mm 0.00 in0.0 mm 0.38 in9.7 mm
10:20 PM 36.5°F2.5°C 31.3°F-0.4°C 81% 4.0 mph WSW6.4 kmh WSW 9.0 mph14.5 kmh 29.98 in1015.2 mb 0.00 in0.0 mm 0.00 in0.0 mm 0.38 in9.7 mm
10:25 PM 36.1°F2.3°C 31.1°F-0.5°C 82% 4.0 mph SW6.4 kmh SW -- 29.98 in1015.2 mb 0.00 in0.0 mm 0.00 in0.0 mm 0.38 in9.7 mm
10:30 PM 36.0°F2.2°C 31.3°F-0.4°C 83% 5.0 mph SW8.0 kmh SW -- 29.98 in1015.2 mb 0.00 in0.0 mm 0.00 in0.0 mm 0.38 in9.7 mm
10:35 PM 35.7°F2.1°C 31.1°F-0.5°C 83% 6.0 mph WSW9.7 kmh WSW -- 29.98 in1015.2 mb 0.00 in0.0 mm 0.00 in0.0 mm 0.38 in9.7 mm
10:40 PM 36.0°F2.2°C 31.6°F-0.2°C 84% 5.0 mph W8.0 kmh W -- 29.98 in1015.2 mb 0.00 in0.0 mm 0.00 in0.0 mm 0.38 in9.7 mm
10:45 PM 36.5°F2.5°C 31.5°F-0.3°C 82% 4.0 mph WSW6.4 kmh WSW 8.0 mph12.9 kmh 29.98 in1015.2 mb 0.00 in0.0 mm 0.00 in0.0 mm 0.38 in9.7 mm
10:50 PM 36.1°F2.3°C 31.1°F-0.5°C 82% 6.0 mph WSW9.7 kmh WSW -- 29.98 in1015.2 mb 0.00 in0.0 mm 0.00 in0.0 mm 0.38 in9.7 mm
10:55 PM 35.6°F2.0°C 30.9°F-0.6°C 83% 6.0 mph WSW9.7 kmh WSW -- 29.98 in1015.2 mb 0.00 in0.0 mm 0.00 in0.0 mm 0.38 in9.7 mm
11:00 PM 35.3°F1.8°C 30.6°F-0.8°C 83% 6.0 mph W9.7 kmh W -- 29.97 in1014.9 mb 0.00 in0.0 mm 0.00 in0.0 mm 0.38 in9.7 mm
11:05 PM 35.6°F2.0°C 30.9°F-0.6°C 83% 5.0 mph WSW8.0 kmh WSW -- 29.98 in1015.2 mb 0.00 in0.0 mm 0.00 in0.0 mm 0.38 in9.7 mm
11:10 PM 35.5°F1.9°C 30.7°F-0.7°C 83% 4.0 mph WSW6.4 kmh WSW 9.0 mph14.5 kmh 29.97 in1014.9 mb 0.00 in0.0 mm 0.00 in0.0 mm 0.38 in9.7 mm
11:15 PM 35.2°F1.8°C 30.6°F-0.8°C 83% 8.0 mph WSW12.9 kmh WSW -- 29.97 in1014.9 mb 0.00 in0.0 mm 0.00 in0.0 mm 0.38 in9.7 mm
11:20 PM 35.3°F1.8°C 30.6°F-0.8°C 83% 6.0 mph W9.7 kmh W -- 29.97 in1014.9 mb 0.00 in0.0 mm 0.00 in0.0 mm 0.38 in9.7 mm
11:25 PM 35.1°F1.7°C 30.4°F-0.9°C 83% 7.0 mph W11.3 kmh W -- 29.97 in1014.9 mb 0.00 in0.0 mm 0.00 in0.0 mm 0.38 in9.7 mm
11:30 PM 36.0°F2.2°C 30.7°F-0.7°C 81% 5.0 mph SW8.0 kmh SW -- 29.97 in1014.9 mb 0.00 in0.0 mm 0.00 in0.0 mm 0.38 in9.7 mm
11:35 PM 36.1°F2.3°C 31.5°F-0.3°C 83% 4.0 mph WSW6.4 kmh WSW 10.0 mph16.1 kmh 29.97 in1014.9 mb 0.00 in0.0 mm 0.00 in0.0 mm 0.38 in9.7 mm
11:40 PM 36.0°F2.2°C 30.7°F-0.7°C 81% 6.0 mph WSW9.7 kmh WSW -- 29.96 in1014.6 mb 0.00 in0.0 mm 0.00 in0.0 mm 0.38 in9.7 mm
11:45 PM 36.0°F2.2°C 30.9°F-0.6°C 82% 5.0 mph WSW8.0 kmh WSW -- 29.96 in1014.6 mb 0.00 in0.0 mm 0.00 in0.0 mm 0.38 in9.7 mm
11:50 PM 36.2°F2.3°C 30.9°F-0.6°C 81% 7.0 mph WSW11.3 kmh WSW -- 29.96 in1014.6 mb 0.00 in0.0 mm 0.00 in0.0 mm 0.38 in9.7 mm
11:55 PM 37.1°F2.8°C 31.5°F-0.3°C 80% 6.0 mph WSW9.7 kmh WSW -- 29.96 in1014.6 mb 0.00 in0.0 mm 0.00 in0.0 mm 0.38 in9.7 mm